sensor_id;sensor_type;location;lat;lon;timestamp;temperature;humidity
21676;DHT22;10999;51.332;9.458;2022-09-09T00:01:43;13.80;98.40
21676;DHT22;10999;51.332;9.458;2022-09-09T00:07:50;13.80;98.20
21676;DHT22;10999;51.332;9.458;2022-09-09T00:15:41;13.80;98.00
21676;DHT22;10999;51.332;9.458;2022-09-09T00:21:15;13.70;97.90
21676;DHT22;10999;51.332;9.458;2022-09-09T00:23:55;13.80;97.90
21676;DHT22;10999;51.332;9.458;2022-09-09T00:26:33;13.70;97.80
21676;DHT22;10999;51.332;9.458;2022-09-09T00:31:54;13.70;97.70
21676;DHT22;10999;51.332;9.458;2022-09-09T00:34:24;13.70;97.60
21676;DHT22;10999;51.332;9.458;2022-09-09T00:36:53;13.70;97.80
21676;DHT22;10999;51.332;9.458;2022-09-09T00:39:27;13.70;97.90
21676;DHT22;10999;51.332;9.458;2022-09-09T00:42:15;13.70;97.80
21676;DHT22;10999;51.332;9.458;2022-09-09T00:45:02;13.70;98.10
21676;DHT22;10999;51.332;9.458;2022-09-09T00:47:58;13.70;98.20
21676;DHT22;10999;51.332;9.458;2022-09-09T00:58:09;13.70;98.10
21676;DHT22;10999;51.332;9.458;2022-09-09T01:00:52;13.60;97.90
21676;DHT22;10999;51.332;9.458;2022-09-09T01:03:35;13.60;97.90
21676;DHT22;10999;51.332;9.458;2022-09-09T01:09:24;13.60;98.20
21676;DHT22;10999;51.332;9.458;2022-09-09T01:12:12;13.60;98.40
21676;DHT22;10999;51.332;9.458;2022-09-09T01:14:45;13.60;98.50
21676;DHT22;10999;51.332;9.458;2022-09-09T01:17:29;13.60;98.60
21676;DHT22;10999;51.332;9.458;2022-09-09T01:20:08;13.60;98.60
21676;DHT22;10999;51.332;9.458;2022-09-09T01:28:16;13.80;98.90
21676;DHT22;10999;51.332;9.458;2022-09-09T01:30:45;13.80;99.60
21676;DHT22;10999;51.332;9.458;2022-09-09T01:33:17;13.90;99.10
21676;DHT22;10999;51.332;9.458;2022-09-09T01:38:34;13.90;99.00
21676;DHT22;10999;51.332;9.458;2022-09-09T01:41:02;14.00;99.00
21676;DHT22;10999;51.332;9.458;2022-09-09T01:43:29;14.00;98.80
21676;DHT22;10999;51.332;9.458;2022-09-09T01:45:59;14.00;98.70
21676;DHT22;10999;51.332;9.458;2022-09-09T01:48:27;14.00;98.60
21676;DHT22;10999;51.332;9.458;2022-09-09T01:50:54;14.00;98.40
21676;DHT22;10999;51.332;9.458;2022-09-09T01:53:22;14.00;98.40
21676;DHT22;10999;51.332;9.458;2022-09-09T01:59:21;14.00;98.20
21676;DHT22;10999;51.332;9.458;2022-09-09T02:04:40;14.10;98.10
21676;DHT22;10999;51.332;9.458;2022-09-09T02:10:09;14.00;97.80
21676;DHT22;10999;51.332;9.458;2022-09-09T02:12:44;14.10;97.90
21676;DHT22;10999;51.332;9.458;2022-09-09T02:15:32;14.10;97.90
21676;DHT22;10999;51.332;9.458;2022-09-09T02:18:01;14.00;97.80
21676;DHT22;10999;51.332;9.458;2022-09-09T02:20:32;14.10;98.00
21676;DHT22;10999;51.332;9.458;2022-09-09T02:23:01;14.00;97.90
21676;DHT22;10999;51.332;9.458;2022-09-09T02:25:29;14.00;97.80
21676;DHT22;10999;51.332;9.458;2022-09-09T02:27:56;14.00;97.80
21676;DHT22;10999;51.332;9.458;2022-09-09T02:30:28;14.00;97.80
21676;DHT22;10999;51.332;9.458;2022-09-09T02:32:58;14.00;97.80
21676;DHT22;10999;51.332;9.458;2022-09-09T02:35:27;14.00;97.80
21676;DHT22;10999;51.332;9.458;2022-09-09T02:37:57;13.90;97.90
21676;DHT22;10999;51.332;9.458;2022-09-09T02:40:25;14.00;98.10
21676;DHT22;10999;51.332;9.458;2022-09-09T02:42:54;14.00;98.20
21676;DHT22;10999;51.332;9.458;2022-09-09T02:45:25;14.00;98.20
21676;DHT22;10999;51.332;9.458;2022-09-09T02:48:04;14.00;98.20
21676;DHT22;10999;51.332;9.458;2022-09-09T02:50:45;14.00;98.20
21676;DHT22;10999;51.332;9.458;2022-09-09T02:53:19;14.00;98.10
21676;DHT22;10999;51.332;9.458;2022-09-09T02:55:50;14.10;98.10
21676;DHT22;10999;51.332;9.458;2022-09-09T02:58:21;14.00;98.00
21676;DHT22;10999;51.332;9.458;2022-09-09T03:00:50;14.00;97.90
21676;DHT22;10999;51.332;9.458;2022-09-09T03:03:18;14.00;97.90
21676;DHT22;10999;51.332;9.458;2022-09-09T03:05:46;14.10;98.10
21676;DHT22;10999;51.332;9.458;2022-09-09T03:08:13;14.00;97.90
21676;DHT22;10999;51.332;9.458;2022-09-09T03:10:40;14.00;98.00
21676;DHT22;10999;51.332;9.458;2022-09-09T03:13:07;14.00;98.00
21676;DHT22;10999;51.332;9.458;2022-09-09T03:15:34;14.00;98.10
21676;DHT22;10999;51.332;9.458;2022-09-09T03:18:01;14.00;98.10
21676;DHT22;10999;51.332;9.458;2022-09-09T03:20:29;14.00;98.10
21676;DHT22;10999;51.332;9.458;2022-09-09T03:22:57;13.90;98.10
21676;DHT22;10999;51.332;9.458;2022-09-09T03:25:25;13.90;98.10
21676;DHT22;10999;51.332;9.458;2022-09-09T03:27:53;13.90;98.40
21676;DHT22;10999;51.332;9.458;2022-09-09T03:30:22;13.90;98.50
21676;DHT22;10999;51.332;9.458;2022-09-09T03:32:49;14.00;98.50
21676;DHT22;10999;51.332;9.458;2022-09-09T03:35:16;13.90;98.60
21676;DHT22;10999;51.332;9.458;2022-09-09T03:37:43;13.90;98.70
21676;DHT22;10999;51.332;9.458;2022-09-09T03:40:10;13.90;98.70
21676;DHT22;10999;51.332;9.458;2022-09-09T03:42:38;14.00;98.60
21676;DHT22;10999;51.332;9.458;2022-09-09T03:45:06;13.90;98.60
21676;DHT22;10999;51.332;9.458;2022-09-09T03:47:34;14.00;98.60
21676;DHT22;10999;51.332;9.458;2022-09-09T03:50:01;14.00;98.60
21676;DHT22;10999;51.332;9.458;2022-09-09T03:52:27;14.00;98.50
21676;DHT22;10999;51.332;9.458;2022-09-09T03:54:54;14.10;98.60
21676;DHT22;10999;51.332;9.458;2022-09-09T03:57:21;14.10;98.60
21676;DHT22;10999;51.332;9.458;2022-09-09T03:59:48;14.10;98.40
21676;DHT22;10999;51.332;9.458;2022-09-09T04:02:15;14.10;98.40
21676;DHT22;10999;51.332;9.458;2022-09-09T04:04:42;14.10;98.40
21676;DHT22;10999;51.332;9.458;2022-09-09T04:07:08;14.10;98.20
21676;DHT22;10999;51.332;9.458;2022-09-09T04:09:35;14.10;98.10
21676;DHT22;10999;51.332;9.458;2022-09-09T04:12:02;14.10;98.10
21676;DHT22;10999;51.332;9.458;2022-09-09T04:14:28;14.10;98.00
21676;DHT22;10999;51.332;9.458;2022-09-09T04:16:55;14.20;97.70
21676;DHT22;10999;51.332;9.458;2022-09-09T04:19:23;14.10;97.60
21676;DHT22;10999;51.332;9.458;2022-09-09T04:21:50;14.10;97.60
21676;DHT22;10999;51.332;9.458;2022-09-09T04:24:18;14.10;97.50
21676;DHT22;10999;51.332;9.458;2022-09-09T04:26:45;14.10;97.50
21676;DHT22;10999;51.332;9.458;2022-09-09T04:29:11;14.10;97.60
21676;DHT22;10999;51.332;9.458;2022-09-09T04:31:38;14.10;97.60
21676;DHT22;10999;51.332;9.458;2022-09-09T04:34:11;14.00;97.50
21676;DHT22;10999;51.332;9.458;2022-09-09T04:36:38;14.00;97.50
21676;DHT22;10999;51.332;9.458;2022-09-09T04:39:07;14.00;97.50
21676;DHT22;10999;51.332;9.458;2022-09-09T04:41:33;14.00;97.50
21676;DHT22;10999;51.332;9.458;2022-09-09T04:44:00;13.90;97.50
21676;DHT22;10999;51.332;9.458;2022-09-09T04:46:27;14.00;97.70
21676;DHT22;10999;51.332;9.458;2022-09-09T04:48:54;14.00;97.60
21676;DHT22;10999;51.332;9.458;2022-09-09T04:51:21;14.00;97.70
21676;DHT22;10999;51.332;9.458;2022-09-09T04:53:48;13.90;97.70
21676;DHT22;10999;51.332;9.458;2022-09-09T04:56:17;13.90;97.60
21676;DHT22;10999;51.332;9.458;2022-09-09T04:58:44;13.90;97.60
21676;DHT22;10999;51.332;9.458;2022-09-09T05:01:17;13.90;97.60
21676;DHT22;10999;51.332;9.458;2022-09-09T05:03:48;13.90;97.70
21676;DHT22;10999;51.332;9.458;2022-09-09T05:06:19;13.90;97.70
21676;DHT22;10999;51.332;9.458;2022-09-09T05:08:46;13.90;97.80
21676;DHT22;10999;51.332;9.458;2022-09-09T05:13:47;13.90;98.10
21676;DHT22;10999;51.332;9.458;2022-09-09T05:16:14;14.00;98.00
21676;DHT22;10999;51.332;9.458;2022-09-09T05:18:42;14.00;98.00
21676;DHT22;10999;51.332;9.458;2022-09-09T05:21:10;14.00;97.80
21676;DHT22;10999;51.332;9.458;2022-09-09T05:23:37;14.10;97.90
21676;DHT22;10999;51.332;9.458;2022-09-09T05:26:05;14.10;98.00
21676;DHT22;10999;51.332;9.458;2022-09-09T05:28:34;14.10;98.00
21676;DHT22;10999;51.332;9.458;2022-09-09T05:31:06;14.20;98.00
21676;DHT22;10999;51.332;9.458;2022-09-09T05:33:40;14.20;97.90
21676;DHT22;10999;51.332;9.458;2022-09-09T05:36:09;14.20;97.70
21676;DHT22;10999;51.332;9.458;2022-09-09T05:38:37;14.20;97.60
21676;DHT22;10999;51.332;9.458;2022-09-09T05:41:05;14.30;97.70
21676;DHT22;10999;51.332;9.458;2022-09-09T05:43:31;14.30;97.60
21676;DHT22;10999;51.332;9.458;2022-09-09T05:46:01;14.30;97.60
21676;DHT22;10999;51.332;9.458;2022-09-09T05:48:29;14.30;97.50
21676;DHT22;10999;51.332;9.458;2022-09-09T05:50:56;14.30;97.50
21676;DHT22;10999;51.332;9.458;2022-09-09T05:53:23;14.40;97.50
21676;DHT22;10999;51.332;9.458;2022-09-09T05:55:49;14.40;97.40
21676;DHT22;10999;51.332;9.458;2022-09-09T05:58:16;14.40;97.30
21676;DHT22;10999;51.332;9.458;2022-09-09T06:00:43;14.40;97.50
21676;DHT22;10999;51.332;9.458;2022-09-09T06:03:11;14.40;97.50
21676;DHT22;10999;51.332;9.458;2022-09-09T06:05:38;14.50;97.70
21676;DHT22;10999;51.332;9.458;2022-09-09T06:08:05;14.50;97.80
21676;DHT22;10999;51.332;9.458;2022-09-09T06:10:32;14.60;98.10
21676;DHT22;10999;51.332;9.458;2022-09-09T06:12:58;14.80;98.30
21676;DHT22;10999;51.332;9.458;2022-09-09T06:15:25;14.90;98.20
21676;DHT22;10999;51.332;9.458;2022-09-09T06:17:56;14.90;95.90
21676;DHT22;10999;51.332;9.458;2022-09-09T06:20:23;15.00;94.70
21676;DHT22;10999;51.332;9.458;2022-09-09T06:22:51;15.00;95.00
21676;DHT22;10999;51.332;9.458;2022-09-09T06:25:18;15.10;94.40
21676;DHT22;10999;51.332;9.458;2022-09-09T06:27:48;15.10;94.50
21676;DHT22;10999;51.332;9.458;2022-09-09T06:30:16;15.10;93.40
21676;DHT22;10999;51.332;9.458;2022-09-09T06:32:43;15.20;93.70
21676;DHT22;10999;51.332;9.458;2022-09-09T06:35:12;15.20;92.80
21676;DHT22;10999;51.332;9.458;2022-09-09T06:37:44;15.30;91.00
21676;DHT22;10999;51.332;9.458;2022-09-09T06:40:10;15.30;91.40
21676;DHT22;10999;51.332;9.458;2022-09-09T06:42:37;15.40;91.80
21676;DHT22;10999;51.332;9.458;2022-09-09T06:45:08;15.40;92.20
21676;DHT22;10999;51.332;9.458;2022-09-09T06:47:35;15.40;92.10
21676;DHT22;10999;51.332;9.458;2022-09-09T06:50:02;15.50;92.10
21676;DHT22;10999;51.332;9.458;2022-09-09T06:52:28;15.50;92.10
21676;DHT22;10999;51.332;9.458;2022-09-09T06:54:55;15.60;91.70
21676;DHT22;10999;51.332;9.458;2022-09-09T06:57:22;15.70;90.30
21676;DHT22;10999;51.332;9.458;2022-09-09T07:00:04;15.80;90.00
21676;DHT22;10999;51.332;9.458;2022-09-09T07:02:31;15.80;89.20
21676;DHT22;10999;51.332;9.458;2022-09-09T07:04:58;15.80;89.30
21676;DHT22;10999;51.332;9.458;2022-09-09T07:07:26;15.90;89.20
21676;DHT22;10999;51.332;9.458;2022-09-09T07:09:53;16.00;88.60
21676;DHT22;10999;51.332;9.458;2022-09-09T07:12:20;16.10;86.90
21676;DHT22;10999;51.332;9.458;2022-09-09T07:14:46;16.20;87.00
21676;DHT22;10999;51.332;9.458;2022-09-09T07:17:13;16.20;85.50
21676;DHT22;10999;51.332;9.458;2022-09-09T07:19:40;16.20;85.70
21676;DHT22;10999;51.332;9.458;2022-09-09T07:22:07;16.20;85.70
21676;DHT22;10999;51.332;9.458;2022-09-09T07:24:37;16.30;86.10
21676;DHT22;10999;51.332;9.458;2022-09-09T07:27:04;16.50;84.90
21676;DHT22;10999;51.332;9.458;2022-09-09T07:29:32;16.70;82.80
21676;DHT22;10999;51.332;9.458;2022-09-09T07:31:59;16.80;83.00
21676;DHT22;10999;51.332;9.458;2022-09-09T07:34:25;16.90;82.10
21676;DHT22;10999;51.332;9.458;2022-09-09T07:36:52;17.20;83.00
21676;DHT22;10999;51.332;9.458;2022-09-09T07:39:18;17.30;81.40
21676;DHT22;10999;51.332;9.458;2022-09-09T07:41:47;17.50;80.10
21676;DHT22;10999;51.332;9.458;2022-09-09T07:44:19;17.70;79.20
21676;DHT22;10999;51.332;9.458;2022-09-09T07:46:47;17.80;77.40
21676;DHT22;10999;51.332;9.458;2022-09-09T07:49:15;17.80;76.10
21676;DHT22;10999;51.332;9.458;2022-09-09T07:51:44;17.80;76.10
21676;DHT22;10999;51.332;9.458;2022-09-09T07:54:13;17.90;77.70
21676;DHT22;10999;51.332;9.458;2022-09-09T07:56:41;18.00;75.90
21676;DHT22;10999;51.332;9.458;2022-09-09T07:59:09;18.10;77.10
21676;DHT22;10999;51.332;9.458;2022-09-09T08:01:39;18.30;76.20
21676;DHT22;10999;51.332;9.458;2022-09-09T08:04:09;18.20;73.90
21676;DHT22;10999;51.332;9.458;2022-09-09T08:06:40;18.10;72.60
21676;DHT22;10999;51.332;9.458;2022-09-09T08:09:08;18.00;74.00
21676;DHT22;10999;51.332;9.458;2022-09-09T08:11:36;17.70;74.70
21676;DHT22;10999;51.332;9.458;2022-09-09T08:14:06;17.50;75.20
21676;DHT22;10999;51.332;9.458;2022-09-09T08:16:36;17.40;78.50
21676;DHT22;10999;51.332;9.458;2022-09-09T08:19:04;17.60;78.70
21676;DHT22;10999;51.332;9.458;2022-09-09T08:21:33;17.90;76.50
21676;DHT22;10999;51.332;9.458;2022-09-09T08:24:02;18.20;75.60
21676;DHT22;10999;51.332;9.458;2022-09-09T08:26:31;18.50;74.10
21676;DHT22;10999;51.332;9.458;2022-09-09T08:28:59;18.70;72.00
21676;DHT22;10999;51.332;9.458;2022-09-09T08:31:32;18.80;72.00
21676;DHT22;10999;51.332;9.458;2022-09-09T08:34:00;19.00;70.70
21676;DHT22;10999;51.332;9.458;2022-09-09T08:36:49;19.10;70.40
21676;DHT22;10999;51.332;9.458;2022-09-09T08:39:18;19.30;68.70
21676;DHT22;10999;51.332;9.458;2022-09-09T08:42:00;19.50;68.60
21676;DHT22;10999;51.332;9.458;2022-09-09T08:47:35;19.80;68.20
21676;DHT22;10999;51.332;9.458;2022-09-09T08:50:15;19.70;65.10
21676;DHT22;10999;51.332;9.458;2022-09-09T08:55:44;19.90;64.90
21676;DHT22;10999;51.332;9.458;2022-09-09T08:58:15;19.70;63.70
21676;DHT22;10999;51.332;9.458;2022-09-09T09:03:42;19.40;67.20
21676;DHT22;10999;51.332;9.458;2022-09-09T09:08:58;19.30;66.20
21676;DHT22;10999;51.332;9.458;2022-09-09T09:11:26;19.40;65.50
21676;DHT22;10999;51.332;9.458;2022-09-09T09:13:58;19.50;63.40
21676;DHT22;10999;51.332;9.458;2022-09-09T09:16:33;19.70;64.30
21676;DHT22;10999;51.332;9.458;2022-09-09T09:19:01;19.90;62.40
21676;DHT22;10999;51.332;9.458;2022-09-09T09:21:41;20.20;63.60
21676;DHT22;10999;51.332;9.458;2022-09-09T09:24:41;20.30;60.70
21676;DHT22;10999;51.332;9.458;2022-09-09T09:27:36;20.30;56.90
21676;DHT22;10999;51.332;9.458;2022-09-09T09:30:12;20.00;55.80
21676;DHT22;10999;51.332;9.458;2022-09-09T09:35:27;19.80;59.50
21676;DHT22;10999;51.332;9.458;2022-09-09T09:37:54;19.90;61.10
21676;DHT22;10999;51.332;9.458;2022-09-09T09:40:51;20.00;59.30
21676;DHT22;10999;51.332;9.458;2022-09-09T09:43:26;19.90;58.10
21676;DHT22;10999;51.332;9.458;2022-09-09T09:45:54;19.90;58.60
21676;DHT22;10999;51.332;9.458;2022-09-09T09:48:41;20.20;57.80
21676;DHT22;10999;51.332;9.458;2022-09-09T09:51:13;20.20;56.10
21676;DHT22;10999;51.332;9.458;2022-09-09T09:53:42;20.20;54.60
21676;DHT22;10999;51.332;9.458;2022-09-09T09:56:11;20.40;52.70
21676;DHT22;10999;51.332;9.458;2022-09-09T10:03:57;21.00;50.00
21676;DHT22;10999;51.332;9.458;2022-09-09T10:06:33;20.80;49.70
21676;DHT22;10999;51.332;9.458;2022-09-09T10:09:02;20.50;50.50
21676;DHT22;10999;51.332;9.458;2022-09-09T10:11:41;20.10;52.20
21676;DHT22;10999;51.332;9.458;2022-09-09T10:14:21;19.80;53.00
21676;DHT22;10999;51.332;9.458;2022-09-09T10:19:31;19.90;55.20
21676;DHT22;10999;51.332;9.458;2022-09-09T10:22:27;20.10;54.50
21676;DHT22;10999;51.332;9.458;2022-09-09T10:30:20;21.20;48.20
21676;DHT22;10999;51.332;9.458;2022-09-09T10:32:56;21.30;44.60
21676;DHT22;10999;51.332;9.458;2022-09-09T10:35:30;21.60;45.60
21676;DHT22;10999;51.332;9.458;2022-09-09T10:46:21;20.90;46.40
21676;DHT22;10999;51.332;9.458;2022-09-09T10:52:00;20.20;50.80
21676;DHT22;10999;51.332;9.458;2022-09-09T10:55:14;20.10;55.90
21676;DHT22;10999;51.332;9.458;2022-09-09T10:57:50;19.80;61.70
21676;DHT22;10999;51.332;9.458;2022-09-09T11:00:22;19.50;63.40
21676;DHT22;10999;51.332;9.458;2022-09-09T11:03:01;19.50;67.20
21676;DHT22;10999;51.332;9.458;2022-09-09T11:05:41;19.70;73.30
21676;DHT22;10999;51.332;9.458;2022-09-09T11:08:28;19.80;69.40
21676;DHT22;10999;51.332;9.458;2022-09-09T11:11:04;19.90;66.30
21676;DHT22;10999;51.332;9.458;2022-09-09T11:16:50;20.40;57.90
21676;DHT22;10999;51.332;9.458;2022-09-09T11:19:34;20.70;62.30
21676;DHT22;10999;51.332;9.458;2022-09-09T11:22:05;20.70;57.00
21676;DHT22;10999;51.332;9.458;2022-09-09T11:24:40;20.60;54.40
21676;DHT22;10999;51.332;9.458;2022-09-09T11:27:28;20.70;52.40
21676;DHT22;10999;51.332;9.458;2022-09-09T11:33:41;20.60;49.20
21676;DHT22;10999;51.332;9.458;2022-09-09T11:38:47;20.60;50.40
21676;DHT22;10999;51.332;9.458;2022-09-09T11:41:15;20.70;47.40
21676;DHT22;10999;51.332;9.458;2022-09-09T11:43:54;20.90;49.80
21676;DHT22;10999;51.332;9.458;2022-09-09T11:46:33;20.90;47.70
21676;DHT22;10999;51.332;9.458;2022-09-09T11:49:04;20.90;48.30
21676;DHT22;10999;51.332;9.458;2022-09-09T11:51:33;20.80;46.30
21676;DHT22;10999;51.332;9.458;2022-09-09T11:54:04;20.70;46.20
21676;DHT22;10999;51.332;9.458;2022-09-09T11:56:51;20.80;47.60
21676;DHT22;10999;51.332;9.458;2022-09-09T12:02:37;21.20;45.90
21676;DHT22;10999;51.332;9.458;2022-09-09T12:05:14;21.50;44.10
21676;DHT22;10999;51.332;9.458;2022-09-09T12:07:50;21.60;43.20
21676;DHT22;10999;51.332;9.458;2022-09-09T12:10:32;21.60;43.70
21676;DHT22;10999;51.332;9.458;2022-09-09T12:13:19;21.50;44.20
21676;DHT22;10999;51.332;9.458;2022-09-09T12:15:59;21.20;43.90
21676;DHT22;10999;51.332;9.458;2022-09-09T12:18:35;20.90;44.70
21676;DHT22;10999;51.332;9.458;2022-09-09T12:22:04;20.50;45.50
21676;DHT22;10999;51.332;9.458;2022-09-09T12:24:34;20.20;49.20
21676;DHT22;10999;51.332;9.458;2022-09-09T12:27:11;20.10;49.80
21676;DHT22;10999;51.332;9.458;2022-09-09T12:32:27;19.80;50.10
21676;DHT22;10999;51.332;9.458;2022-09-09T12:35:00;19.70;50.70
21676;DHT22;10999;51.332;9.458;2022-09-09T12:38:02;19.70;51.50
21676;DHT22;10999;51.332;9.458;2022-09-09T12:40:25;19.60;51.40
21676;DHT22;10999;51.332;9.458;2022-09-09T12:42:52;19.60;51.70
21676;DHT22;10999;51.332;9.458;2022-09-09T12:45:25;19.50;50.00
21676;DHT22;10999;51.332;9.458;2022-09-09T12:48:01;19.40;50.70
21676;DHT22;10999;51.332;9.458;2022-09-09T12:50:33;19.40;51.80
21676;DHT22;10999;51.332;9.458;2022-09-09T12:53:06;19.40;48.80
21676;DHT22;10999;51.332;9.458;2022-09-09T12:55:38;19.30;46.30
21676;DHT22;10999;51.332;9.458;2022-09-09T12:58:06;19.30;47.30
21676;DHT22;10999;51.332;9.458;2022-09-09T13:00:34;19.40;44.10
21676;DHT22;10999;51.332;9.458;2022-09-09T13:03:13;19.80;39.60
21676;DHT22;10999;51.332;9.458;2022-09-09T13:05:41;20.10;38.00
21676;DHT22;10999;51.332;9.458;2022-09-09T13:08:14;20.40;36.00
21676;DHT22;10999;51.332;9.458;2022-09-09T13:10:54;20.60;35.00
21676;DHT22;10999;51.332;9.458;2022-09-09T13:13:35;20.80;34.80
21676;DHT22;10999;51.332;9.458;2022-09-09T13:16:04;21.00;33.40
21676;DHT22;10999;51.332;9.458;2022-09-09T13:18:35;21.20;34.80
21676;DHT22;10999;51.332;9.458;2022-09-09T13:21:02;21.40;37.10
21676;DHT22;10999;51.332;9.458;2022-09-09T13:23:31;21.60;36.50
21676;DHT22;10999;51.332;9.458;2022-09-09T13:28:45;21.90;35.10
21676;DHT22;10999;51.332;9.458;2022-09-09T13:31:28;21.90;34.90
21676;DHT22;10999;51.332;9.458;2022-09-09T13:33:55;22.10;36.40
21676;DHT22;10999;51.332;9.458;2022-09-09T13:36:30;22.20;36.10
21676;DHT22;10999;51.332;9.458;2022-09-09T13:38:59;22.10;35.00
21676;DHT22;10999;51.332;9.458;2022-09-09T13:41:43;21.90;34.90
21676;DHT22;10999;51.332;9.458;2022-09-09T13:44:25;22.10;36.70
21676;DHT22;10999;51.332;9.458;2022-09-09T13:47:01;22.20;37.20
21676;DHT22;10999;51.332;9.458;2022-09-09T13:49:35;22.30;38.20
21676;DHT22;10999;51.332;9.458;2022-09-09T13:52:10;22.40;38.60
21676;DHT22;10999;51.332;9.458;2022-09-09T13:54:38;22.20;35.20
21676;DHT22;10999;51.332;9.458;2022-09-09T13:57:05;22.30;36.70
21676;DHT22;10999;51.332;9.458;2022-09-09T13:59:32;22.40;35.50
21676;DHT22;10999;51.332;9.458;2022-09-09T14:02:19;22.40;32.60
21676;DHT22;10999;51.332;9.458;2022-09-09T14:04:47;22.40;34.20
21676;DHT22;10999;51.332;9.458;2022-09-09T14:07:18;22.50;32.70
21676;DHT22;10999;51.332;9.458;2022-09-09T14:09:45;22.40;32.50
21676;DHT22;10999;51.332;9.458;2022-09-09T14:12:16;22.20;33.30
21676;DHT22;10999;51.332;9.458;2022-09-09T14:14:43;22.00;33.40
21676;DHT22;10999;51.332;9.458;2022-09-09T14:17:10;21.80;33.90
21676;DHT22;10999;51.332;9.458;2022-09-09T14:19:37;21.90;36.20
21676;DHT22;10999;51.332;9.458;2022-09-09T14:22:03;22.10;34.60
21676;DHT22;10999;51.332;9.458;2022-09-09T14:24:30;22.00;32.70
21676;DHT22;10999;51.332;9.458;2022-09-09T14:26:57;22.00;34.40
21676;DHT22;10999;51.332;9.458;2022-09-09T14:29:24;22.00;35.90
21676;DHT22;10999;51.332;9.458;2022-09-09T14:31:51;22.10;35.30
21676;DHT22;10999;51.332;9.458;2022-09-09T14:34:18;22.10;35.40
21676;DHT22;10999;51.332;9.458;2022-09-09T14:36:45;22.30;35.20
21676;DHT22;10999;51.332;9.458;2022-09-09T14:39:12;22.40;33.00
21676;DHT22;10999;51.332;9.458;2022-09-09T14:41:38;22.20;33.90
21676;DHT22;10999;51.332;9.458;2022-09-09T14:44:05;22.20;35.40
21676;DHT22;10999;51.332;9.458;2022-09-09T14:46:32;22.20;34.70
21676;DHT22;10999;51.332;9.458;2022-09-09T14:48:59;22.30;34.00
21676;DHT22;10999;51.332;9.458;2022-09-09T14:51:26;22.40;34.20
21676;DHT22;10999;51.332;9.458;2022-09-09T14:53:56;22.40;33.00
21676;DHT22;10999;51.332;9.458;2022-09-09T14:56:26;22.50;34.00
21676;DHT22;10999;51.332;9.458;2022-09-09T14:58:54;22.50;34.40
21676;DHT22;10999;51.332;9.458;2022-09-09T15:01:22;22.50;32.90
21676;DHT22;10999;51.332;9.458;2022-09-09T15:04:01;22.30;33.50
21676;DHT22;10999;51.332;9.458;2022-09-09T15:06:29;22.30;34.50
21676;DHT22;10999;51.332;9.458;2022-09-09T15:08:58;22.30;33.20
21676;DHT22;10999;51.332;9.458;2022-09-09T15:11:33;22.20;33.80
21676;DHT22;10999;51.332;9.458;2022-09-09T15:14:00;22.20;34.40
21676;DHT22;10999;51.332;9.458;2022-09-09T15:16:28;22.10;33.60
21676;DHT22;10999;51.332;9.458;2022-09-09T15:18:57;21.80;33.70
21676;DHT22;10999;51.332;9.458;2022-09-09T15:21:26;21.60;34.40
21676;DHT22;10999;51.332;9.458;2022-09-09T15:23:54;21.60;35.70
21676;DHT22;10999;51.332;9.458;2022-09-09T15:26:21;21.70;34.40
21676;DHT22;10999;51.332;9.458;2022-09-09T15:28:48;21.50;33.60
21676;DHT22;10999;51.332;9.458;2022-09-09T15:31:21;21.40;34.20
21676;DHT22;10999;51.332;9.458;2022-09-09T15:36:21;21.00;34.30
21676;DHT22;10999;51.332;9.458;2022-09-09T15:38:49;20.90;35.40
21676;DHT22;10999;51.332;9.458;2022-09-09T15:41:17;21.00;35.50
21676;DHT22;10999;51.332;9.458;2022-09-09T15:43:46;21.00;37.20
21676;DHT22;10999;51.332;9.458;2022-09-09T15:51:43;21.20;35.50
21676;DHT22;10999;51.332;9.458;2022-09-09T15:54:21;21.10;36.80
21676;DHT22;10999;51.332;9.458;2022-09-09T15:56:57;21.10;36.10
21676;DHT22;10999;51.332;9.458;2022-09-09T15:59:25;21.00;36.30
21676;DHT22;10999;51.332;9.458;2022-09-09T16:01:52;21.00;36.70
21676;DHT22;10999;51.332;9.458;2022-09-09T16:04:20;20.80;37.60
21676;DHT22;10999;51.332;9.458;2022-09-09T16:06:54;20.70;38.20
21676;DHT22;10999;51.332;9.458;2022-09-09T16:09:21;20.70;39.50
21676;DHT22;10999;51.332;9.458;2022-09-09T16:11:48;20.70;39.00
21676;DHT22;10999;51.332;9.458;2022-09-09T16:14:15;20.60;38.80
21676;DHT22;10999;51.332;9.458;2022-09-09T16:16:42;20.50;38.20
21676;DHT22;10999;51.332;9.458;2022-09-09T16:19:11;20.30;39.60
21676;DHT22;10999;51.332;9.458;2022-09-09T16:21:44;20.30;40.60
21676;DHT22;10999;51.332;9.458;2022-09-09T16:24:13;20.30;40.40
21676;DHT22;10999;51.332;9.458;2022-09-09T16:26:43;20.20;41.20
21676;DHT22;10999;51.332;9.458;2022-09-09T16:29:13;20.10;42.00
21676;DHT22;10999;51.332;9.458;2022-09-09T16:31:41;20.10;42.30
21676;DHT22;10999;51.332;9.458;2022-09-09T16:34:08;20.10;42.60
21676;DHT22;10999;51.332;9.458;2022-09-09T16:36:37;20.00;43.00
21676;DHT22;10999;51.332;9.458;2022-09-09T16:39:17;20.00;43.30
21676;DHT22;10999;51.332;9.458;2022-09-09T16:41:45;19.90;43.90
21676;DHT22;10999;51.332;9.458;2022-09-09T16:44:13;19.90;44.80
21676;DHT22;10999;51.332;9.458;2022-09-09T16:46:41;19.90;45.00
21676;DHT22;10999;51.332;9.458;2022-09-09T16:49:13;19.80;44.50
21676;DHT22;10999;51.332;9.458;2022-09-09T16:51:49;19.70;44.50
21676;DHT22;10999;51.332;9.458;2022-09-09T16:54:19;19.70;44.30
21676;DHT22;10999;51.332;9.458;2022-09-09T16:56:47;19.60;43.30
21676;DHT22;10999;51.332;9.458;2022-09-09T16:59:18;19.60;43.10
21676;DHT22;10999;51.332;9.458;2022-09-09T17:01:51;19.60;43.40
21676;DHT22;10999;51.332;9.458;2022-09-09T17:04:19;19.50;44.00
21676;DHT22;10999;51.332;9.458;2022-09-09T17:06:48;19.50;43.50
21676;DHT22;10999;51.332;9.458;2022-09-09T17:09:19;19.40;43.70
21676;DHT22;10999;51.332;9.458;2022-09-09T17:11:47;19.40;43.90
21676;DHT22;10999;51.332;9.458;2022-09-09T17:14:18;19.30;44.80
21676;DHT22;10999;51.332;9.458;2022-09-09T17:16:45;19.30;45.00
21676;DHT22;10999;51.332;9.458;2022-09-09T17:19:13;19.30;45.40
21676;DHT22;10999;51.332;9.458;2022-09-09T17:21:40;19.20;46.00
21676;DHT22;10999;51.332;9.458;2022-09-09T17:24:27;19.10;46.50
21676;DHT22;10999;51.332;9.458;2022-09-09T17:26:55;19.00;47.30
21676;DHT22;10999;51.332;9.458;2022-09-09T17:29:22;18.90;48.50
21676;DHT22;10999;51.332;9.458;2022-09-09T17:31:49;18.90;49.10
21676;DHT22;10999;51.332;9.458;2022-09-09T17:34:16;18.80;49.50
21676;DHT22;10999;51.332;9.458;2022-09-09T17:36:43;18.70;50.10
21676;DHT22;10999;51.332;9.458;2022-09-09T17:39:09;18.70;51.50
21676;DHT22;10999;51.332;9.458;2022-09-09T17:41:38;18.70;51.70
21676;DHT22;10999;51.332;9.458;2022-09-09T17:44:06;18.60;51.80
21676;DHT22;10999;51.332;9.458;2022-09-09T17:46:40;18.60;52.20